Time;durP1;ratioP1;P1;durP2;ratioP2;P2;SDS_P1;SDS_P2;PMS_P1;PMS_P2;Temp;Humidity;BMP_temperature;BMP_pressure;BME280_temperature;BME280_humidity;BME280_pressure;Samples;Min_cycle;Max_cycle;Signal;HPM_P1;HPM_P2
2022/06/29 00:09:25;;;;;;;2.78;1.00;;;22.70;50.80;;;;;;20956615;28;20036;-77
2022/06/29 00:19:26;;;;;;;1.65;1.00;;;22.60;49.90;;;;;;20955739;28;20103;-76
2022/06/29 00:29:26;;;;;;;2.67;1.33;;;22.50;49.90;;;;;;20953648;28;20051;-76
2022/06/29 00:39:27;;;;;;;2.05;1.05;;;22.50;50.10;;;;;;21350504;22;20023;-76
2022/06/29 00:49:29;;;;;;;1.50;1.13;;;22.50;50.20;;;;;;20906897;28;20493;-77
2022/06/29 00:59:29;;;;;;;1.90;1.20;;;22.50;50.20;;;;;;20839527;28;20076;-77
2022/06/29 01:09:30;;;;;;;1.10;0.90;;;22.40;50.30;;;;;;20815611;28;20033;-77
2022/06/29 01:19:31;;;;;;;1.63;1.00;;;22.40;50.50;;;;;;20871907;28;20036;-77
2022/06/29 01:29:31;;;;;;;1.55;1.17;;;22.30;50.70;;;;;;20852709;28;20498;-76
2022/06/29 01:39:32;;;;;;;2.33;1.00;;;22.30;51.00;;;;;;20868124;28;20052;-76
2022/06/29 01:49:33;;;;;;;6.57;1.57;;;22.30;51.30;;;;;;20879090;28;20454;-77
2022/06/29 01:59:33;;;;;;;1.63;0.95;;;22.20;51.40;;;;;;20913108;28;20359;-76
2022/06/29 02:09:34;;;;;;;1.25;0.98;;;22.20;51.60;;;;;;20936102;28;20082;-77
2022/06/29 02:19:34;;;;;;;1.95;0.95;;;22.20;51.90;;;;;;20922466;28;20040;-77
2022/06/29 02:29:35;;;;;;;1.30;1.00;;;22.20;52.20;;;;;;20851630;28;20057;-77
2022/06/29 02:39:36;;;;;;;1.98;0.98;;;22.00;52.30;;;;;;20839722;28;20132;-76
2022/06/29 02:49:36;;;;;;;1.27;0.90;;;22.10;52.60;;;;;;20874689;28;20406;-76
2022/06/29 02:59:37;;;;;;;2.38;1.17;;;22.00;52.80;;;;;;20847143;28;20036;-76
2022/06/29 03:09:37;;;;;;;3.33;0.90;;;21.90;53.10;;;;;;20895821;28;20033;-77
2022/06/29 03:19:38;;;;;;;4.25;1.38;;;21.90;53.50;;;;;;20845334;28;20120;-76
2022/06/29 03:29:38;;;;;;;1.30;0.90;;;21.90;53.70;;;;;;20864728;28;20079;-77
2022/06/29 03:39:41;;;;;;;3.20;1.20;;;21.90;53.90;;;;;;20898738;28;20044;-76
2022/06/29 03:49:42;;;;;;;1.38;0.98;;;21.90;54.00;;;;;;20850781;28;20028;-75
2022/06/29 03:59:43;;;;;;;2.33;0.75;;;22.00;54.30;;;;;;20898497;28;20117;-77
2022/06/29 04:09:43;;;;;;;3.00;1.05;;;21.90;54.50;;;;;;20864729;28;20135;-78
2022/06/29 04:19:44;;;;;;;1.35;0.90;;;21.90;54.80;;;;;;20897606;28;20032;-78
2022/06/29 04:29:44;;;;;;;1.80;1.02;;;21.90;55.10;;;;;;20841285;28;20045;-78
2022/06/29 04:39:45;;;;;;;3.55;1.35;;;21.90;55.40;;;;;;20862768;28;20079;-78
2022/06/29 04:49:45;;;;;;;1.98;1.13;;;21.80;55.70;;;;;;20877248;28;20534;-78
2022/06/29 04:59:46;;;;;;;1.80;1.20;;;21.70;56.30;;;;;;20856651;28;20033;-73
2022/06/29 05:09:46;;;;;;;2.78;1.23;;;21.60;56.80;;;;;;20886211;28;20395;-76
2022/06/29 05:19:47;;;;;;;8.88;1.50;;;21.60;57.40;;;;;;20839078;28;20534;-77
2022/06/29 05:29:49;;;;;;;1.95;1.05;;;21.60;57.80;;;;;;20854999;28;20032;-76
2022/06/29 05:39:49;;;;;;;2.35;1.20;;;21.60;58.40;;;;;;20854838;28;20461;-79
2022/06/29 05:49:50;;;;;;;1.45;1.08;;;21.60;58.90;;;;;;20863327;28;20076;-78
2022/06/29 05:59:51;;;;;;;4.63;1.30;;;21.60;59.40;;;;;;20872228;28;20041;-79
2022/06/29 06:09:52;;;;;;;2.35;1.35;;;21.60;59.70;;;;;;20888688;28;20478;-77
2022/06/29 06:19:54;;;;;;;2.17;1.17;;;21.60;60.00;;;;;;20870476;28;20033;-77
2022/06/29 06:29:54;;;;;;;3.03;1.23;;;21.70;60.40;;;;;;20852825;28;20446;-77
2022/06/29 06:50:14;;;;;;;1.83;1.38;;;21.70;61.10;;;;;;20891679;28;20045;-77
2022/06/29 07:00:15;;;;;;;1.85;1.25;;;21.80;61.60;;;;;;20863342;28;20067;-78
2022/06/29 07:10:15;;;;;;;2.05;1.50;;;21.90;61.90;;;;;;20850828;28;20032;-77
2022/06/29 07:20:16;;;;;;;2.45;1.55;;;22.10;62.10;;;;;;20864636;28;20595;-78
2022/06/29 07:30:16;;;;;;;1.92;1.13;;;22.30;62.30;;;;;;20863809;28;20523;-77
2022/06/29 07:40:17;;;;;;;3.33;1.60;;;22.30;62.20;;;;;;20853811;28;20045;-77
2022/06/29 07:50:18;;;;;;;3.28;1.50;;;22.40;61.90;;;;;;20877213;28;20094;-77
2022/06/29 08:00:18;;;;;;;2.35;1.55;;;22.60;61.70;;;;;;20842789;28;20043;-77
2022/06/29 08:10:19;;;;;;;4.40;1.52;;;22.70;61.50;;;;;;20836412;28;20029;-77
2022/06/29 08:20:20;;;;;;;2.75;1.65;;;22.70;61.20;;;;;;20863820;28;20120;-76
2022/06/29 08:30:21;;;;;;;1.83;1.42;;;22.80;61.00;;;;;;20832901;28;20107;-77
2022/06/29 08:40:21;;;;;;;4.10;1.75;;;22.90;60.80;;;;;;20832104;28;20090;-77
2022/06/29 08:50:22;;;;;;;2.60;1.60;;;23.00;60.60;;;;;;20880543;28;20025;-76
2022/06/29 09:00:24;;;;;;;2.95;1.80;;;23.10;60.60;;;;;;20856383;28;20283;-78
2022/06/29 09:10:24;;;;;;;3.72;1.50;;;23.20;60.50;;;;;;20855671;28;20037;-78
2022/06/29 09:20:36;;;;;;;2.33;1.57;;;23.20;60.10;;;;;;20870990;28;20063;-78
2022/06/29 09:30:38;;;;;;;1.80;1.27;;;23.20;58.90;;;;;;20855663;28;20039;-78
2022/06/29 09:40:58;;;;;;;3.45;1.13;;;23.30;58.30;;;;;;20871025;28;20033;-78
2022/06/29 09:50:59;;;;;;;2.20;1.30;;;23.30;57.70;;;;;;20860974;28;20123;-77
2022/06/29 10:21:45;;;;;;;2.50;1.33;;;23.40;56.80;;;;;;20887135;28;20033;-78
2022/06/29 10:31:56;;;;;;;2.40;1.60;;;23.50;56.50;;;;;;20871552;28;20036;-78
2022/06/29 10:52:16;;;;;;;1.85;1.42;;;23.50;56.30;;;;;;20886806;28;20033;-74
2022/06/29 11:02:17;;;;;;;1.38;1.08;;;23.50;56.00;;;;;;20881960;28;20429;-75
2022/06/29 11:12:18;;;;;;;4.22;1.70;;;23.50;55.10;;;;;;20880605;28;20554;-74
2022/06/29 11:22:18;;;;;;;1.33;1.17;;;23.50;54.80;;;;;;20879981;28;20124;-75
2022/06/29 11:32:19;;;;;;;3.60;1.05;;;23.50;54.50;;;;;;20865244;28;20041;-77
2022/06/29 11:52:51;;;;;;;1.65;1.25;;;23.50;54.00;;;;;;20894904;28;20037;-75
2022/06/29 12:02:57;;;;;;;1.80;1.30;;;23.60;53.70;;;;;;20874705;28;20028;-76
2022/06/29 12:12:58;;;;;;;1.20;0.90;;;23.60;53.60;;;;;;20877560;28;20550;-78
2022/06/29 12:22:58;;;;;;;2.15;1.05;;;23.70;53.70;;;;;;20840362;28;20033;-79
2022/06/29 12:32:59;;;;;;;2.13;1.08;;;23.70;53.80;;;;;;20857780;28;20120;-79
2022/06/29 12:43:00;;;;;;;1.73;0.98;;;23.70;53.70;;;;;;20869758;28;20037;-79
2022/06/29 12:53:01;;;;;;;1.65;0.75;;;23.70;53.60;;;;;;20871945;28;20448;-77
2022/06/29 13:03:01;;;;;;;2.93;0.87;;;23.70;53.40;;;;;;20861454;28;20107;-82
2022/06/29 13:13:03;;;;;;;3.60;1.10;;;23.70;53.00;;;;;;20875269;28;20303;-84
2022/06/29 13:23:03;;;;;;;1.25;0.80;;;23.80;52.50;;;;;;20842246;28;20540;-81
2022/06/29 13:33:04;;;;;;;2.03;0.93;;;23.90;52.40;;;;;;20855788;28;20029;-81
2022/06/29 13:43:05;;;;;;;2.50;1.17;;;23.90;52.40;;;;;;20872196;28;20052;-81
2022/06/29 13:53:06;;;;;;;1.52;0.90;;;23.90;52.30;;;;;;20851265;28;20127;-80
2022/06/29 14:03:06;;;;;;;1.38;1.00;;;23.90;52.50;;;;;;20851017;28;20029;-79
2022/06/29 14:13:07;;;;;;;0.93;0.70;;;23.90;52.50;;;;;;20869747;28;20091;-81
2022/06/29 14:23:07;;;;;;;1.47;0.90;;;23.90;52.50;;;;;;20887364;28;20741;-81
2022/06/29 14:33:08;;;;;;;1.75;1.00;;;24.00;52.10;;;;;;20859486;28;20040;-80
2022/06/29 14:43:09;;;;;;;1.00;0.60;;;24.00;52.10;;;;;;20888624;28;20095;-80
2022/06/29 14:53:09;;;;;;;3.22;1.10;;;24.00;51.90;;;;;;20858477;28;20048;-80
2022/06/29 15:03:10;;;;;;;1.40;1.00;;;24.00;51.70;;;;;;20843375;28;20037;-80
2022/06/29 15:13:10;;;;;;;1.77;1.17;;;24.10;51.50;;;;;;20900591;28;20090;-75
2022/06/29 15:23:11;;;;;;;2.00;1.27;;;24.30;51.30;;;;;;20896787;28;20033;-78
2022/06/29 15:33:12;;;;;;;3.28;0.93;;;24.40;51.00;;;;;;20867666;28;20032;-84
2022/06/29 15:43:12;;;;;;;1.58;0.90;;;24.40;50.70;;;;;;20869372;28;20041;-84
2022/06/29 16:03:32;;;;;;;1.83;1.00;;;24.30;49.60;;;;;;20902030;28;20045;-84
2022/06/29 16:13:33;;;;;;;1.20;0.93;;;24.30;49.40;;;;;;20875391;28;20035;-80
2022/06/29 16:23:33;;;;;;;1.48;1.20;;;24.40;49.50;;;;;;20838317;28;20052;-77
2022/06/29 16:33:34;;;;;;;2.67;1.25;;;24.40;49.40;;;;;;20891916;28;20033;-76
2022/06/29 16:43:35;;;;;;;1.88;1.27;;;24.50;49.30;;;;;;20888788;28;20059;-73
2022/06/29 16:53:36;;;;;;;2.40;0.80;;;24.50;49.10;;;;;;20880076;28;20043;-72
2022/06/29 17:03:36;;;;;;;2.25;1.15;;;24.50;48.80;;;;;;20871774;28;20063;-74
2022/06/29 17:13:37;;;;;;;6.07;1.50;;;24.50;48.70;;;;;;20844671;28;20044;-80
2022/06/29 17:23:37;;;;;;;2.92;1.10;;;24.50;48.60;;;;;;20846774;28;20064;-79
2022/06/29 17:33:39;;;;;;;1.98;1.02;;;24.50;48.60;;;;;;20877295;28;20045;-85
2022/06/29 17:43:40;;;;;;;1.50;0.80;;;24.50;48.60;;;;;;20882269;28;20029;-77
2022/06/29 17:53:40;;;;;;;0.93;0.60;;;24.50;48.60;;;;;;20844393;28;20128;-78
2022/06/29 18:03:41;;;;;;;2.90;1.25;;;24.50;48.50;;;;;;20875334;28;20025;-78
2022/06/29 18:13:42;;;;;;;2.10;1.17;;;24.50;48.50;;;;;;20828427;28;20052;-78
2022/06/29 18:23:43;;;;;;;2.07;1.23;;;24.40;48.40;;;;;;20843909;28;20041;-78
2022/06/29 18:33:43;;;;;;;1.65;0.80;;;24.40;48.50;;;;;;20844515;28;20665;-78
2022/06/29 18:43:44;;;;;;;1.08;0.80;;;24.30;48.60;;;;;;20848299;28;20036;-78
2022/06/29 18:53:44;;;;;;;1.73;1.17;;;24.20;48.90;;;;;;20837167;28;20052;-75
2022/06/29 19:03:45;;;;;;;4.05;1.13;;;24.20;49.20;;;;;;20865087;28;20120;-77
2022/06/29 19:13:46;;;;;;;2.28;1.10;;;24.10;49.40;;;;;;20876706;28;20052;-75
2022/06/29 19:23:46;;;;;;;5.97;1.02;;;24.10;49.70;;;;;;20879228;28;20037;-75
2022/06/29 19:33:47;;;;;;;4.50;0.90;;;24.00;49.80;;;;;;20877416;28;20098;-75
2022/06/29 19:43:50;;;;;;;0.77;0.70;;;24.00;50.10;;;;;;20868911;28;20067;-74
2022/06/29 19:53:50;;;;;;;2.25;0.80;;;23.90;50.20;;;;;;20877738;28;20068;-76
2022/06/29 20:03:51;;;;;;;1.27;0.88;;;23.90;50.40;;;;;;20848614;28;20029;-74
2022/06/29 20:13:52;;;;;;;2.50;1.10;;;23.80;50.70;;;;;;20839706;28;20120;-74
2022/06/29 20:23:52;;;;;;;15.43;1.73;;;23.70;51.00;;;;;;20843124;28;20745;-75
2022/06/29 20:33:53;;;;;;;3.43;1.60;;;23.70;51.30;;;;;;20873620;28;20033;-75
2022/06/29 20:54:12;;;;;;;6.60;1.45;;;23.60;51.40;;;;;;20875758;28;20029;-75
2022/06/29 21:04:15;;;;;;;2.55;1.10;;;23.60;51.40;;;;;;20872813;28;20056;-74
2022/06/29 21:14:15;;;;;;;1.35;1.20;;;23.60;51.70;;;;;;20852617;28;20086;-75
2022/06/29 21:24:16;;;;;;;1.98;1.10;;;23.50;51.80;;;;;;20871438;28;20132;-74
2022/06/29 21:34:17;;;;;;;1.42;1.13;;;23.50;51.90;;;;;;20857388;28;20104;-74
2022/06/29 21:44:17;;;;;;;1.90;1.10;;;23.50;52.60;;;;;;20838710;28;20331;-76
2022/06/29 21:54:18;;;;;;;2.40;1.70;;;23.40;52.00;;;;;;20842249;28;20119;-75
2022/06/29 22:04:19;;;;;;;1.92;1.17;;;23.40;52.20;;;;;;20853553;28;20487;-75
2022/06/29 22:14:19;;;;;;;3.60;0.93;;;23.30;52.30;;;;;;20854225;28;20037;-74
2022/06/29 22:24:20;;;;;;;0.73;0.70;;;23.40;52.40;;;;;;20871104;28;20040;-74
2022/06/29 22:34:20;;;;;;;2.22;1.23;;;23.30;52.30;;;;;;20885138;28;20506;-74
2022/06/29 22:44:21;;;;;;;1.85;1.00;;;23.30;52.30;;;;;;20855337;28;20131;-76
2022/06/29 22:54:22;;;;;;;4.30;1.38;;;23.30;52.40;;;;;;20868177;28;20029;-73
2022/06/29 23:04:22;;;;;;;1.40;0.93;;;23.30;52.50;;;;;;20883455;28;20053;-75
2022/06/29 23:14:23;;;;;;;2.53;1.30;;;23.20;52.70;;;;;;20867318;28;20104;-74
2022/06/29 23:24:23;;;;;;;2.85;1.38;;;23.20;52.80;;;;;;20866412;28;20033;-74
2022/06/29 23:34:24;;;;;;;3.28;1.35;;;23.20;52.80;;;;;;20864696;28;20086;-75
2022/06/29 23:44:25;;;;;;;2.30;1.40;;;23.10;53.00;;;;;;20863567;28;20127;-77
2022/06/29 23:54:25;;;;;;;2.97;0.93;;;22.90;53.20;;;;;;20850875;28;20037;-75
